createdAt,value
2023-04-09T00:01:28.127Z,100298.63
2023-04-09T00:03:56.273Z,100301.73
2023-04-09T00:06:24.720Z,100303.86
2023-04-09T00:08:53.042Z,100304.26
2023-04-09T00:11:21.820Z,100302.79
2023-04-09T00:13:52.376Z,100304.20
2023-04-09T00:16:20.493Z,100305.10
2023-04-09T00:18:48.491Z,100305.52
2023-04-09T00:29:34.935Z,100297.77
2023-04-09T00:32:03.530Z,100298.32
2023-04-09T00:34:32.043Z,100298.70
2023-04-09T00:37:00.673Z,100296.00
2023-04-09T00:39:29.213Z,100297.43
2023-04-09T00:41:58.720Z,100301.06
2023-04-09T00:44:27.063Z,100301.86
2023-04-09T00:46:55.475Z,100301.83
2023-04-09T00:49:26.347Z,100299.68
2023-04-09T00:51:54.399Z,100302.27
2023-04-09T00:54:23.382Z,100297.70
2023-04-09T00:56:51.396Z,100297.73
2023-04-09T00:59:19.577Z,100297.05
2023-04-09T01:01:47.769Z,100296.10
2023-04-09T01:04:16.889Z,100300.46
2023-04-09T01:06:56.350Z,100304.09
2023-04-09T01:09:31.156Z,100299.75
2023-04-09T01:12:12.315Z,100302.49
2023-04-09T01:14:51.070Z,100303.83
2023-04-09T01:17:26.824Z,100303.80
2023-04-09T01:20:01.714Z,100302.77
2023-04-09T01:22:56.474Z,100304.33
2023-04-09T01:25:47.710Z,100300.05
2023-04-09T01:28:20.800Z,100300.27
2023-04-09T01:30:51.037Z,100298.27
2023-04-09T01:33:20.541Z,100296.38
2023-04-09T01:35:49.430Z,100297.81
2023-04-09T01:38:18.758Z,100295.82
2023-04-09T01:40:47.727Z,100299.46
2023-04-09T01:43:17.327Z,100301.52
2023-04-09T01:45:47.427Z,100306.09
2023-04-09T01:48:16.407Z,100307.67
2023-04-09T01:50:48.698Z,100310.62
2023-04-09T01:53:17.907Z,100315.01
2023-04-09T01:55:47.668Z,100316.05
2023-04-09T01:58:19.811Z,100318.92
2023-04-09T02:00:48.785Z,100316.31
2023-04-09T02:03:25.757Z,100315.33
2023-04-09T02:06:02.912Z,100317.28
2023-04-09T02:08:31.923Z,100317.70
2023-04-09T02:11:00.342Z,100317.16
2023-04-09T02:13:28.536Z,100313.92
2023-04-09T02:16:00.324Z,100318.20
2023-04-09T02:18:31.308Z,100314.98
2023-04-09T02:20:59.734Z,100320.63
2023-04-09T02:23:29.255Z,100320.40
2023-04-09T02:25:57.380Z,100321.66
2023-04-09T02:28:26.474Z,100316.75
2023-04-09T02:30:54.964Z,100322.04
2023-04-09T02:33:22.990Z,100320.46
2023-04-09T02:35:51.976Z,100322.02
2023-04-09T02:38:21.334Z,100320.39
2023-04-09T02:40:55.086Z,100321.67
2023-04-09T02:43:24.655Z,100322.48
2023-04-09T02:45:52.670Z,100324.92
2023-04-09T02:48:22.171Z,100321.38
2023-04-09T02:50:51.506Z,100319.60
2023-04-09T02:53:21.749Z,100317.94
2023-04-09T02:55:50.595Z,100314.73
2023-04-09T02:58:19.081Z,100312.77
2023-04-09T03:00:49.749Z,100316.05
2023-04-09T03:03:18.443Z,100317.37
2023-04-09T03:05:46.750Z,100318.31
2023-04-09T03:08:15.032Z,100317.35
2023-04-09T03:10:44.248Z,100317.20
2023-04-09T03:13:13.080Z,100315.01
2023-04-09T03:15:41.699Z,100318.04
2023-04-09T03:18:10.060Z,100320.55
2023-04-09T03:20:39.639Z,100320.11
2023-04-09T03:23:11.929Z,100316.02
2023-04-09T03:25:43.990Z,100318.31
2023-04-09T03:28:13.912Z,100322.09
2023-04-09T03:30:49.028Z,100324.65
2023-04-09T03:33:17.454Z,100326.95
2023-04-09T03:35:52.514Z,100325.58
2023-04-09T03:38:26.885Z,100326.91
2023-04-09T03:40:56.729Z,100327.15
2023-04-09T03:43:27.530Z,100328.39
2023-04-09T03:45:55.944Z,100325.23
2023-04-09T03:48:27.538Z,100327.05
2023-04-09T03:50:56.627Z,100325.96
2023-04-09T03:53:35.596Z,100327.65
2023-04-09T03:56:06.778Z,100323.06
2023-04-09T03:58:35.318Z,100325.76
2023-04-09T04:01:03.773Z,100328.14
2023-04-09T04:03:36.333Z,100329.27
2023-04-09T04:06:18.848Z,100328.45
2023-04-09T04:09:13.095Z,100329.14
2023-04-09T04:11:48.760Z,100334.29
2023-04-09T04:14:17.154Z,100333.77
2023-04-09T04:16:47.519Z,100331.58
2023-04-09T04:19:18.099Z,100334.89
2023-04-09T04:21:48.684Z,100333.56
2023-04-09T04:24:17.133Z,100336.09
2023-04-09T04:26:45.748Z,100340.02
2023-04-09T04:29:15.692Z,100343.48
2023-04-09T04:32:07.903Z,100344.35
2023-04-09T04:34:38.326Z,100344.48
2023-04-09T04:37:13.821Z,100346.48
2023-04-09T04:39:49.155Z,100350.27
2023-04-09T04:42:18.378Z,100350.79
2023-04-09T04:44:46.966Z,100348.95
2023-04-09T04:47:29.937Z,100347.29
2023-04-09T04:50:00.210Z,100352.75
2023-04-09T04:52:31.446Z,100353.48
2023-04-09T04:55:02.787Z,100352.54
2023-04-09T04:57:31.168Z,100355.50
2023-04-09T05:00:01.149Z,100356.02
2023-04-09T05:02:30.973Z,100357.59
2023-04-09T05:05:34.619Z,100363.93
2023-04-09T05:08:05.834Z,100366.31
2023-04-09T05:10:36.807Z,100370.98
2023-04-09T05:13:04.986Z,100371.31
2023-04-09T05:15:40.822Z,100370.24
2023-04-09T05:18:09.578Z,100373.57
2023-04-09T05:20:37.883Z,100372.89
2023-04-09T05:23:13.155Z,100373.83
2023-04-09T05:25:45.017Z,100376.45
2023-04-09T05:28:21.957Z,100377.59
2023-04-09T05:30:54.392Z,100378.56
2023-04-09T05:33:23.190Z,100380.60
2023-04-09T05:35:52.208Z,100379.23
2023-04-09T05:38:21.478Z,100377.76
2023-04-09T05:40:55.651Z,100381.70
2023-04-09T05:43:26.303Z,100381.69
2023-04-09T05:45:56.680Z,100382.58
2023-04-09T05:48:25.007Z,100387.50
2023-04-09T05:50:55.643Z,100389.09
2023-04-09T05:53:26.692Z,100385.36
2023-04-09T05:55:54.774Z,100387.81
2023-04-09T05:58:25.312Z,100386.61
2023-04-09T06:00:58.065Z,100387.84
2023-04-09T06:03:28.965Z,100392.38
2023-04-09T06:05:57.393Z,100390.23
2023-04-09T06:08:27.959Z,100393.86
2023-04-09T06:10:56.959Z,100397.45
2023-04-09T06:13:26.393Z,100398.02
2023-04-09T06:15:54.988Z,100399.23
2023-04-09T06:18:24.941Z,100403.52
2023-04-09T06:21:08.535Z,100404.96
2023-04-09T06:23:41.644Z,100401.88
2023-04-09T06:26:11.839Z,100402.53
2023-04-09T06:28:41.212Z,100403.85
2023-04-09T06:31:12.414Z,100406.27
2023-04-09T06:33:43.305Z,100407.95
2023-04-09T06:36:12.324Z,100401.91
2023-04-09T06:38:41.606Z,100408.27
2023-04-09T06:41:12.762Z,100401.27
2023-04-09T06:43:43.280Z,100402.21
2023-04-09T06:46:11.542Z,100402.79
2023-04-09T06:48:39.910Z,100402.58
2023-04-09T06:51:08.707Z,100403.13
2023-04-09T06:53:40.695Z,100404.99
2023-04-09T06:56:10.596Z,100404.42
2023-04-09T06:58:43.027Z,100406.10
2023-04-09T07:01:11.149Z,100404.95
2023-04-09T07:03:43.312Z,100404.94
2023-04-09T07:06:12.225Z,100405.42
2023-04-09T07:08:40.494Z,100408.97
2023-04-09T07:11:13.015Z,100407.17
2023-04-09T07:13:43.266Z,100407.02
2023-04-09T07:16:11.627Z,100407.25
2023-04-09T07:18:41.178Z,100410.40
2023-04-09T07:21:09.758Z,100412.48
2023-04-09T07:23:38.172Z,100408.75
2023-04-09T07:26:06.282Z,100408.42
2023-04-09T07:28:37.098Z,100412.30
2023-04-09T07:31:05.534Z,100410.73
2023-04-09T07:33:53.863Z,100413.39
2023-04-09T07:36:24.842Z,100413.63
2023-04-09T07:38:53.214Z,100411.98
2023-04-09T07:41:22.689Z,100411.16
2023-04-09T07:43:50.904Z,100408.81
2023-04-09T07:46:22.315Z,100411.45
2023-04-09T07:48:50.768Z,100410.59
2023-04-09T07:51:20.510Z,100405.93
2023-04-09T07:53:53.391Z,100401.79
2023-04-09T07:56:22.532Z,100400.81
2023-04-09T07:58:51.114Z,100397.60
2023-04-09T08:01:24.715Z,100394.14
2023-04-09T08:03:53.365Z,100396.48
2023-04-09T08:06:23.136Z,100393.75
2023-04-09T08:08:56.271Z,100396.27
2023-04-09T08:11:26.089Z,100393.91
2023-04-09T08:13:54.772Z,100400.51
2023-04-09T08:16:28.168Z,100399.43
2023-04-09T08:18:57.468Z,100397.27
2023-04-09T08:21:30.073Z,100395.42
2023-04-09T08:24:05.174Z,100393.45
2023-04-09T08:26:33.847Z,100393.21
2023-04-09T08:29:03.434Z,100391.31
2023-04-09T08:31:33.996Z,100395.19
2023-04-09T08:34:02.245Z,100393.89
2023-04-09T08:36:32.515Z,100390.27
2023-04-09T08:39:01.112Z,100393.07
2023-04-09T08:41:30.228Z,100393.45
2023-04-09T08:43:59.505Z,100391.27
2023-04-09T08:46:28.779Z,100387.85
2023-04-09T08:48:57.498Z,100389.20
2023-04-09T08:51:25.952Z,100385.80
2023-04-09T08:54:03.729Z,100387.73
2023-04-09T08:56:33.562Z,100387.80
2023-04-09T08:59:01.739Z,100384.09
2023-04-09T09:01:31.036Z,100385.12
2023-04-09T09:04:04.420Z,100386.38
2023-04-09T09:06:38.703Z,100386.14
2023-04-09T09:09:11.092Z,100383.35
2023-04-09T09:11:46.892Z,100385.23
2023-04-09T09:14:19.023Z,100386.14
2023-04-09T09:17:04.611Z,100388.36
2023-04-09T09:19:36.116Z,100388.79
2023-04-09T09:22:11.077Z,100384.52
2023-04-09T09:24:50.414Z,100385.87
2023-04-09T09:27:33.491Z,100385.89
2023-04-09T09:30:08.741Z,100386.75
2023-04-09T09:32:37.346Z,100385.66
2023-04-09T09:35:06.610Z,100382.59
2023-04-09T09:37:34.930Z,100375.24
2023-04-09T09:40:04.402Z,100367.02
2023-04-09T09:42:37.580Z,100368.42
2023-04-09T09:45:17.636Z,100371.23
2023-04-09T09:47:48.701Z,100370.65
2023-04-09T09:50:17.930Z,100363.83
2023-04-09T09:52:46.200Z,100367.63
2023-04-09T09:55:18.055Z,100364.15
2023-04-09T09:57:48.387Z,100360.15
2023-04-09T10:00:18.665Z,100362.66
2023-04-09T10:02:59.642Z,100365.55
2023-04-09T10:05:27.910Z,100361.55
2023-04-09T10:07:58.357Z,100358.66
2023-04-09T10:10:27.385Z,100356.55
2023-04-09T10:12:56.371Z,100353.73
2023-04-09T10:15:25.962Z,100353.47
2023-04-09T10:17:56.313Z,100352.21
2023-04-09T10:20:34.677Z,100353.47
2023-04-09T10:23:06.353Z,100349.48
2023-04-09T10:25:36.001Z,100348.96
2023-04-09T10:28:12.371Z,100349.56
2023-04-09T10:30:40.354Z,100346.30
2023-04-09T10:33:28.125Z,100344.45
2023-04-09T10:36:02.055Z,100345.64
2023-04-09T10:38:41.137Z,100337.51
2023-04-09T10:41:22.548Z,100333.65
2023-04-09T10:43:51.023Z,100330.55
2023-04-09T10:46:35.065Z,100329.25
2023-04-09T10:49:13.713Z,100331.85
2023-04-09T10:51:47.944Z,100331.73
2023-04-09T10:54:35.201Z,100327.46
2023-04-09T10:57:08.171Z,100325.16
2023-04-09T10:59:49.628Z,100322.93
2023-04-09T11:03:04.772Z,100318.70
2023-04-09T11:06:09.587Z,100323.11
2023-04-09T11:08:39.475Z,100318.81
2023-04-09T11:11:07.749Z,100310.92
2023-04-09T11:13:41.732Z,100305.18
2023-04-09T11:16:24.098Z,100306.88
2023-04-09T11:19:13.602Z,100304.43
2023-04-09T11:21:49.235Z,100297.13
2023-04-09T11:24:19.818Z,100292.79
2023-04-09T11:26:52.106Z,100300.53
2023-04-09T11:29:35.102Z,100290.23
2023-04-09T11:32:05.418Z,100296.08
2023-04-09T11:34:53.327Z,100290.45
2023-04-09T11:37:28.952Z,100282.04
2023-04-09T11:39:58.426Z,100280.89
2023-04-09T11:42:31.892Z,100282.85
2023-04-09T11:45:07.379Z,100276.80
2023-04-09T11:47:51.270Z,100275.35
2023-04-09T11:50:23.147Z,100268.06
2023-04-09T11:59:20.906Z,100266.30
2023-04-09T12:01:58.783Z,100263.77
2023-04-09T12:04:29.432Z,100264.33
2023-04-09T12:06:59.024Z,100263.33
2023-04-09T12:09:28.832Z,100264.69
2023-04-09T12:12:11.527Z,100265.64
2023-04-09T12:14:57.268Z,100263.79
2023-04-09T12:17:27.240Z,100265.52
2023-04-09T12:20:15.631Z,100263.48
2023-04-09T12:22:47.621Z,100255.80
2023-04-09T12:25:16.017Z,100263.55
2023-04-09T12:27:47.043Z,100258.55
2023-04-09T12:30:17.904Z,100252.05
2023-04-09T12:32:52.973Z,100249.55
2023-04-09T12:35:22.827Z,100254.58
2023-04-09T12:37:50.949Z,100256.23
2023-04-09T12:40:20.454Z,100246.73
2023-04-09T12:42:49.933Z,100250.14
2023-04-09T12:45:21.259Z,100244.05
2023-04-09T12:47:49.712Z,100244.94
2023-04-09T12:50:23.506Z,100240.94
2023-04-09T12:52:52.996Z,100234.23
2023-04-09T12:55:23.404Z,100233.87
2023-04-09T12:57:53.691Z,100241.05
2023-04-09T13:00:24.746Z,100242.58
2023-04-09T13:02:53.489Z,100234.80
2023-04-09T13:05:22.963Z,100234.79
2023-04-09T13:07:51.505Z,100236.91
2023-04-09T13:10:20.356Z,100238.40
2023-04-09T13:12:52.708Z,100236.95
2023-04-09T13:15:20.997Z,100242.98
2023-04-09T13:17:50.894Z,100239.67
2023-04-09T13:20:22.460Z,100239.63
2023-04-09T13:22:52.488Z,100237.95
2023-04-09T13:25:21.399Z,100236.39
2023-04-09T13:27:52.639Z,100236.60
2023-04-09T13:30:24.204Z,100235.08
2023-04-09T13:33:02.834Z,100235.96
2023-04-09T13:35:51.353Z,100227.95
2023-04-09T13:38:22.182Z,100228.13
2023-04-09T13:40:51.157Z,100238.27
2023-04-09T13:43:27.984Z,100238.91
2023-04-09T13:45:57.423Z,100252.13
2023-04-09T13:48:26.490Z,100261.89
2023-04-09T13:50:55.171Z,100262.48
2023-04-09T13:53:25.287Z,100262.90
2023-04-09T13:55:53.688Z,100266.48
2023-04-09T13:58:23.362Z,100271.25
2023-04-09T14:00:54.856Z,100269.75
2023-04-09T14:03:24.592Z,100272.08
2023-04-09T14:05:56.601Z,100270.82
2023-04-09T14:08:26.586Z,100269.21
2023-04-09T14:10:57.057Z,100271.66
2023-04-09T14:13:25.458Z,100275.73
2023-04-09T14:15:53.850Z,100269.57
2023-04-09T14:18:23.638Z,100273.10
2023-04-09T14:20:57.205Z,100276.45
2023-04-09T14:23:26.433Z,100280.37
2023-04-09T14:25:54.933Z,100283.52
2023-04-09T14:28:23.764Z,100280.98
2023-04-09T14:30:59.740Z,100287.19
2023-04-09T14:33:44.490Z,100285.89
2023-04-09T14:36:17.716Z,100283.41
2023-04-09T14:38:49.363Z,100282.41
2023-04-09T14:41:20.188Z,100282.91
2023-04-09T14:43:50.408Z,100282.61
2023-04-09T14:46:34.196Z,100281.20
2023-04-09T14:49:08.388Z,100275.49
2023-04-09T14:51:41.369Z,100275.59
2023-04-09T15:02:47.713Z,100275.05
2023-04-09T15:05:24.374Z,100274.98
2023-04-09T15:07:54.967Z,100275.27
2023-04-09T15:10:26.415Z,100269.16
2023-04-09T15:12:56.418Z,100266.20
2023-04-09T15:15:27.720Z,100265.64
2023-04-09T15:18:06.017Z,100266.16
2023-04-09T15:20:39.739Z,100264.98
2023-04-09T15:23:08.478Z,100264.81
2023-04-09T15:25:40.854Z,100259.94
2023-04-09T15:28:09.629Z,100260.22
2023-04-09T15:30:39.611Z,100259.48
2023-04-09T15:33:08.478Z,100257.71
2023-04-09T15:35:39.863Z,100255.06
2023-04-09T15:38:17.303Z,100254.42
2023-04-09T15:41:01.639Z,100253.97
2023-04-09T15:43:36.936Z,100251.20
2023-04-09T15:46:10.861Z,100249.05
2023-04-09T15:48:44.554Z,100248.61
2023-04-09T15:51:33.059Z,100241.33
2023-04-09T15:54:08.204Z,100241.07
2023-04-09T15:56:40.530Z,100241.42
2023-04-09T15:59:14.216Z,100243.63
2023-04-09T16:01:43.293Z,100242.02
2023-04-09T16:04:12.986Z,100248.70
2023-04-09T16:07:02.483Z,100247.55
2023-04-09T16:09:50.443Z,100249.68
2023-04-09T16:12:25.993Z,100252.83
2023-04-09T16:15:07.989Z,100252.88
2023-04-09T16:17:40.838Z,100253.27
2023-04-09T16:20:11.708Z,100253.50
2023-04-09T16:22:45.980Z,100252.89
2023-04-09T16:25:16.503Z,100256.20
2023-04-09T16:27:50.703Z,100256.80
2023-04-09T16:30:24.332Z,100257.23
2023-04-09T16:40:43.918Z,100259.52
2023-04-09T16:43:12.325Z,100256.31
2023-04-09T16:45:40.591Z,100259.73
2023-04-09T16:48:28.618Z,100263.73
2023-04-09T16:51:03.724Z,100265.36
2023-04-09T16:53:38.390Z,100266.48
2023-04-09T16:56:10.835Z,100268.41
2023-04-09T16:58:40.019Z,100271.11
2023-04-09T17:01:09.586Z,100268.69
2023-04-09T17:03:50.440Z,100273.04
2023-04-09T17:06:19.004Z,100272.79
2023-04-09T17:08:47.991Z,100277.64
2023-04-09T17:11:17.222Z,100277.74
2023-04-09T17:13:52.391Z,100278.60
2023-04-09T17:16:25.003Z,100282.20
2023-04-09T17:18:53.714Z,100284.85
2023-04-09T17:21:27.971Z,100285.58
2023-04-09T17:24:04.405Z,100286.37
2023-04-09T17:26:34.223Z,100287.70
2023-04-09T17:29:03.152Z,100290.40
2023-04-09T17:31:31.710Z,100287.95
2023-04-09T17:42:36.425Z,100296.40
2023-04-09T17:45:05.820Z,100298.88
2023-04-09T17:47:41.298Z,100298.98
2023-04-09T17:50:09.680Z,100298.86
2023-04-09T17:52:46.571Z,100299.88
2023-04-09T17:55:15.147Z,100300.03
2023-04-09T17:57:48.209Z,100301.80
2023-04-09T18:00:17.342Z,100303.73
2023-04-09T18:02:53.178Z,100305.40
2023-04-09T18:05:23.078Z,100304.69
2023-04-09T18:07:54.952Z,100304.44
2023-04-09T18:10:24.951Z,100302.94
2023-04-09T18:13:03.741Z,100308.48
2023-04-09T18:15:32.797Z,100311.45
2023-04-09T18:18:02.657Z,100313.54
2023-04-09T18:20:32.262Z,100318.08
2023-04-09T18:23:01.652Z,100317.48
2023-04-09T18:25:31.534Z,100319.33
2023-04-09T18:28:00.850Z,100319.38
2023-04-09T18:30:31.487Z,100319.49
2023-04-09T18:33:00.967Z,100315.61
2023-04-09T18:35:31.831Z,100317.59
2023-04-09T18:38:08.496Z,100318.85
2023-04-09T18:40:46.364Z,100320.45
2023-04-09T18:43:14.491Z,100316.33
2023-04-09T18:45:43.580Z,100318.27
2023-04-09T18:48:13.396Z,100318.91
2023-04-09T18:50:48.746Z,100315.09
2023-04-09T18:53:20.807Z,100314.26
2023-04-09T18:55:49.162Z,100314.78
2023-04-09T18:58:17.767Z,100311.95
2023-04-09T19:00:46.343Z,100315.25
2023-04-09T19:03:16.465Z,100318.45
2023-04-09T19:05:45.459Z,100318.02
2023-04-09T19:08:13.949Z,100313.01
2023-04-09T19:10:42.424Z,100313.84
2023-04-09T19:13:12.945Z,100319.59
2023-04-09T19:15:41.278Z,100321.17
2023-04-09T19:18:09.463Z,100318.73
2023-04-09T19:20:38.065Z,100317.34
2023-04-09T19:23:06.734Z,100317.46
2023-04-09T19:25:36.958Z,100317.15
2023-04-09T19:28:05.873Z,100319.91
2023-04-09T19:30:33.985Z,100318.18
2023-04-09T19:33:09.628Z,100315.65
2023-04-09T19:35:41.064Z,100313.58
2023-04-09T19:38:18.179Z,100313.59
2023-04-09T19:40:46.793Z,100313.70
2023-04-09T19:43:15.828Z,100311.23
2023-04-09T19:45:44.641Z,100312.95
2023-04-09T19:48:14.085Z,100310.08
2023-04-09T19:50:48.407Z,100308.88
2023-04-09T19:53:17.008Z,100307.84
2023-04-09T19:55:46.093Z,100305.05
2023-04-09T19:58:15.978Z,100305.85
2023-04-09T20:00:44.317Z,100308.81
2023-04-09T20:03:13.885Z,100305.58
2023-04-09T20:05:43.144Z,100303.10
2023-04-09T20:08:14.356Z,100303.60
2023-04-09T20:10:47.242Z,100306.20
2023-04-09T20:13:17.882Z,100309.63
2023-04-09T20:15:47.070Z,100309.46
2023-04-09T20:18:19.524Z,100310.27
2023-04-09T20:20:50.827Z,100308.31
2023-04-09T20:23:21.874Z,100310.37
2023-04-09T20:25:56.889Z,100308.85
2023-04-09T20:28:26.606Z,100307.43
2023-04-09T20:30:57.902Z,100309.04
2023-04-09T20:33:26.162Z,100306.21
2023-04-09T20:35:57.539Z,100303.17
2023-04-09T20:38:26.238Z,100303.63
2023-04-09T20:40:54.667Z,100302.02
2023-04-09T20:43:23.391Z,100300.35
2023-04-09T20:45:59.960Z,100305.08
2023-04-09T20:48:34.499Z,100304.59
2023-04-09T20:51:08.291Z,100307.09
2023-04-09T20:53:37.709Z,100304.42
2023-04-09T20:56:06.613Z,100307.86
2023-04-09T20:58:44.465Z,100306.59
2023-04-09T21:01:16.128Z,100312.96
2023-04-09T21:03:44.965Z,100309.16
2023-04-09T21:06:19.531Z,100308.44
2023-04-09T21:08:48.262Z,100305.52
2023-04-09T21:11:16.499Z,100305.49
2023-04-09T21:13:54.910Z,100306.98
2023-04-09T21:16:26.052Z,100303.42
2023-04-09T21:18:54.807Z,100303.10
2023-04-09T21:21:31.153Z,100305.95
2023-04-09T21:24:01.269Z,100305.11
2023-04-09T21:26:38.434Z,100305.96
2023-04-09T21:29:17.574Z,100304.67
2023-04-09T21:31:46.453Z,100303.86
2023-04-09T21:34:15.138Z,100306.52
2023-04-09T21:36:45.473Z,100308.55
2023-04-09T21:39:13.784Z,100305.51
2023-04-09T21:41:42.607Z,100300.48
2023-04-09T21:44:10.605Z,100301.66
2023-04-09T21:46:40.833Z,100302.83
2023-04-09T21:49:10.458Z,100308.08
2023-04-09T21:51:39.376Z,100308.98
2023-04-09T21:54:09.976Z,100309.34
2023-04-09T21:56:39.439Z,100313.92
2023-04-09T21:59:10.691Z,100312.66
2023-04-09T22:01:41.293Z,100310.40
2023-04-09T22:04:09.720Z,100309.70
2023-04-09T22:06:40.174Z,100303.77
2023-04-09T22:09:08.684Z,100306.75
2023-04-09T22:11:41.222Z,100305.02
2023-04-09T22:14:12.105Z,100302.86
2023-04-09T22:16:41.284Z,100301.60
2023-04-09T22:19:09.408Z,100300.44
2023-04-09T22:21:42.392Z,100304.23
2023-04-09T22:24:10.812Z,100300.81
2023-04-09T22:26:44.109Z,100298.40
2023-04-09T22:29:16.164Z,100297.72
2023-04-09T22:31:45.943Z,100296.30
2023-04-09T22:34:20.936Z,100294.73
2023-04-09T22:36:50.182Z,100296.48
2023-04-09T22:39:19.627Z,100296.56
2023-04-09T22:41:47.725Z,100299.25
2023-04-09T22:44:16.112Z,100298.38
2023-04-09T22:46:46.288Z,100300.88
2023-04-09T22:49:18.035Z,100298.34
2023-04-09T22:51:48.496Z,100295.36
2023-04-09T22:54:16.694Z,100298.53
2023-04-09T22:56:45.605Z,100299.65
2023-04-09T22:59:13.989Z,100298.59
2023-04-09T23:01:43.323Z,100302.39
2023-04-09T23:04:12.187Z,100299.31
2023-04-09T23:06:41.686Z,100298.27
2023-04-09T23:09:11.292Z,100297.13
2023-04-09T23:11:47.734Z,100297.42
2023-04-09T23:14:17.078Z,100297.73
2023-04-09T23:16:45.139Z,100300.42
2023-04-09T23:19:13.618Z,100296.94
2023-04-09T23:21:41.760Z,100296.48
2023-04-09T23:24:09.850Z,100293.83
2023-04-09T23:26:38.073Z,100293.50
2023-04-09T23:29:06.280Z,100288.75
2023-04-09T23:31:38.811Z,100291.86
2023-04-09T23:34:07.724Z,100286.55
2023-04-09T23:36:36.008Z,100292.02
2023-04-09T23:39:04.347Z,100290.91
2023-04-09T23:41:32.727Z,100290.88
2023-04-09T23:44:01.154Z,100289.72
2023-04-09T23:46:29.691Z,100286.88
2023-04-09T23:48:57.832Z,100288.02
2023-04-09T23:51:26.180Z,100290.66
2023-04-09T23:53:55.765Z,100287.48
2023-04-09T23:56:25.148Z,100288.79
2023-04-09T23:58:53.613Z,100290.05
